Terminal Aerodrome Forecast
Issued by NWS Louisville, KY

Home | Current Version | Previous Version | Text Only | Print | Product List | Glossary On
Versions: 1 2 3 4 5 6 7 8 9 10 11 12 13 14
000
FTUS43 KLMK 231738
TAFLEX
TAF
KLEX 231738Z 2318/2418 21015G25KT P6SM SCT035 BKN045
     FM231930 21015KT 4SM SHRA VCTS OVC035CB
      TEMPO 2322/2402 1SM +SHRA BKN025
     FM240200 30007KT P6SM VCSH BKN022
     FM240700 30005KT P6SM BKN050=

USA.gov is the U.S. government's official web portal to all federal, state and local government web resources and services.